createdAt,value
2018-06-15T00:00:41.680Z,5.20
2018-06-15T00:03:12.277Z,5.43
2018-06-15T00:05:43.779Z,6.20
2018-06-15T00:08:13.014Z,6.17
2018-06-15T00:13:42.239Z,4.83
2018-06-15T00:16:11.156Z,5.00
2018-06-15T00:18:40.338Z,5.87
2018-06-15T00:21:09.547Z,6.60
2018-06-15T00:23:38.722Z,6.87
2018-06-15T00:26:07.681Z,6.03
2018-06-15T00:28:36.889Z,6.20
2018-06-15T00:31:06.070Z,6.57
2018-06-15T00:33:35.300Z,5.50
2018-06-15T00:36:04.465Z,7.13
2018-06-15T00:38:56.894Z,5.80
2018-06-15T00:41:26.257Z,6.23
2018-06-15T00:43:55.604Z,6.73
2018-06-15T00:46:25.040Z,6.43
2018-06-15T00:48:54.185Z,5.93
2018-06-15T00:51:23.339Z,7.00
2018-06-15T00:53:54.494Z,6.60
2018-06-15T00:56:23.838Z,6.10
2018-06-15T00:58:53.329Z,7.33
2018-06-15T01:01:22.698Z,6.83
2018-06-15T01:03:53.226Z,6.03
2018-06-15T01:09:22.853Z,6.70
2018-06-15T01:11:52.005Z,6.50
2018-06-15T01:14:21.178Z,6.50
2018-06-15T01:16:50.512Z,7.20
2018-06-15T01:22:20.678Z,6.40
2018-06-15T01:24:49.837Z,5.80
2018-06-15T01:27:19.022Z,6.70
2018-06-15T01:29:48.218Z,6.77
2018-06-15T01:32:17.369Z,6.73
2018-06-15T01:34:59.153Z,7.17
2018-06-15T01:37:28.318Z,6.30
2018-06-15T01:39:57.497Z,6.30
2018-06-15T01:42:26.710Z,6.27
2018-06-15T01:44:55.865Z,5.93
2018-06-15T01:47:25.025Z,5.57
2018-06-15T01:49:54.234Z,6.60
2018-06-15T01:52:24.105Z,6.87
2018-06-15T01:54:54.630Z,6.07
2018-06-15T01:57:24.749Z,6.23
2018-06-15T01:59:53.919Z,6.10
2018-06-15T02:05:23.774Z,6.00
2018-06-15T02:07:52.972Z,6.63
2018-06-15T02:10:22.144Z,6.33
2018-06-15T02:12:51.352Z,6.43
2018-06-15T02:15:20.530Z,6.13
2018-06-15T02:17:49.684Z,6.20
2018-06-15T02:20:18.878Z,6.10
2018-06-15T02:22:48.034Z,6.10
2018-06-15T02:25:17.462Z,6.63
2018-06-15T02:27:47.057Z,5.90
2018-06-15T02:30:16.606Z,6.00
2018-06-15T02:32:45.930Z,5.20
2018-06-15T02:35:15.146Z,6.70
2018-06-15T02:37:44.306Z,6.50
2018-06-15T02:40:13.474Z,6.40
2018-06-15T02:45:43.290Z,6.60
2018-06-15T02:48:12.704Z,6.67
2018-06-15T02:50:41.898Z,6.13
2018-06-15T02:53:11.141Z,6.10
2018-06-15T02:55:41.421Z,5.80
2018-06-15T02:58:11.224Z,5.87
2018-06-15T03:00:40.425Z,6.70
2018-06-15T03:03:09.581Z,6.20
2018-06-15T03:05:38.769Z,6.07
2018-06-15T03:08:07.945Z,6.77
2018-06-15T03:16:37.203Z,6.30
2018-06-15T03:19:06.411Z,6.17
2018-06-15T03:21:35.645Z,6.07
2018-06-15T03:24:04.829Z,6.10
2018-06-15T03:26:33.985Z,5.93
2018-06-15T03:29:03.174Z,6.53
2018-06-15T03:31:32.388Z,6.23
2018-06-15T03:34:01.584Z,5.83
2018-06-15T03:36:30.813Z,6.50
2018-06-15T03:39:00.030Z,5.90
2018-06-15T03:41:29.376Z,6.53
2018-06-15T03:43:58.616Z,6.80
2018-06-15T03:46:27.945Z,7.63
2018-06-15T03:48:57.126Z,6.73
2018-06-15T03:51:26.303Z,6.80
2018-06-15T03:53:55.518Z,6.20
2018-06-15T03:56:24.686Z,6.90
2018-06-15T03:58:54.195Z,6.00
2018-06-15T04:01:23.461Z,8.33
2018-06-15T04:03:52.750Z,5.70
2018-06-15T04:06:21.946Z,6.30
2018-06-15T04:11:50.888Z,9.13
2018-06-15T04:14:20.052Z,5.80
2018-06-15T04:16:49.218Z,5.40
2018-06-15T04:19:18.410Z,6.10
2018-06-15T04:21:47.565Z,6.43
2018-06-15T04:24:16.729Z,8.83
2018-06-15T04:26:45.925Z,5.80
2018-06-15T04:29:15.069Z,6.37
2018-06-15T04:31:44.224Z,6.50
2018-06-15T04:37:13.958Z,8.80
2018-06-15T04:39:43.131Z,6.67
2018-06-15T04:42:12.316Z,6.00
2018-06-15T04:44:41.500Z,6.23
2018-06-15T04:47:10.670Z,6.00
2018-06-15T04:49:40.205Z,7.17
2018-06-15T04:52:09.455Z,6.10
2018-06-15T04:54:38.651Z,6.07
2018-06-15T04:57:07.830Z,8.23
2018-06-15T04:59:37.232Z,7.37
2018-06-15T05:02:06.401Z,14.53
2018-06-15T05:07:35.361Z,6.77
2018-06-15T05:10:04.766Z,10.23
2018-06-15T05:12:33.931Z,11.70
2018-06-15T05:18:35.487Z,12.00
2018-06-15T05:21:04.694Z,13.97
2018-06-15T05:23:33.845Z,10.60
2018-06-15T05:26:03.084Z,12.10
2018-06-15T05:28:32.349Z,14.70
2018-06-15T05:31:01.522Z,13.73
2018-06-15T05:33:30.701Z,13.70
2018-06-15T05:36:00.071Z,13.77
2018-06-15T05:38:29.278Z,13.17
2018-06-15T05:40:58.472Z,13.23
2018-06-15T05:43:27.669Z,14.10
2018-06-15T05:48:57.523Z,14.57
2018-06-15T05:51:26.698Z,10.23
2018-06-15T05:53:55.878Z,8.63
2018-06-15T05:56:25.054Z,9.63
2018-06-15T05:58:54.225Z,7.90
2018-06-15T06:01:23.458Z,8.50
2018-06-15T06:03:52.708Z,12.17
2018-06-15T06:06:22.146Z,11.03
2018-06-15T06:08:51.364Z,10.57
2018-06-15T06:14:21.238Z,12.70
2018-06-15T06:19:58.021Z,7.50
2018-06-15T06:22:27.158Z,7.93
2018-06-15T06:24:57.846Z,11.90
2018-06-15T06:36:56.443Z,9.07
2018-06-15T07:18:12.465Z,7.50
2018-06-15T07:29:58.614Z,9.50
2018-06-15T08:06:15.795Z,5.83
2018-06-15T08:35:56.825Z,4.20
2018-06-15T08:47:26.207Z,5.00
2018-06-15T08:55:58.670Z,4.30
2018-06-15T08:58:56.621Z,5.30
2018-06-15T09:07:25.790Z,4.53
2018-06-15T09:18:58.405Z,5.07
2018-06-15T09:27:55.693Z,5.20
2018-06-15T09:36:55.644Z,5.00
2018-06-15T09:59:57.589Z,4.70
2018-06-15T10:02:26.761Z,5.00
2018-06-15T10:04:55.966Z,4.40
2018-06-15T10:10:25.598Z,4.50
2018-06-15T10:12:58.442Z,4.07
2018-06-15T10:15:57.098Z,5.53
2018-06-15T10:36:58.748Z,3.63
2018-06-15T10:59:26.506Z,4.20
2018-06-15T11:10:59.821Z,3.70
2018-06-15T11:16:56.025Z,4.10
2018-06-15T11:40:56.315Z,4.60
2018-06-15T14:31:18.097Z,3.70
2018-06-15T14:33:47.301Z,3.47
2018-06-15T14:39:18.596Z,3.50
2018-06-15T14:41:47.771Z,3.10
2018-06-15T14:44:22.756Z,3.43
2018-06-15T14:46:51.965Z,3.50
2018-06-15T14:50:57.813Z,3.83
2018-06-15T14:53:56.339Z,4.33
2018-06-15T15:14:55.813Z,3.67
2018-06-15T15:26:19.308Z,3.30
2018-06-15T15:40:58.713Z,4.37
2018-06-15T15:43:54.638Z,3.90
2018-06-15T15:49:25.273Z,4.40
2018-06-15T15:51:55.632Z,4.10
2018-06-15T15:54:24.827Z,3.80
2018-06-15T15:56:59.521Z,3.90
2018-06-15T15:59:55.897Z,4.23
2018-06-15T16:08:25.677Z,3.70
2018-06-15T17:48:25.838Z,3.90
2018-06-15T17:50:58.526Z,4.23
2018-06-15T17:53:27.700Z,4.50
2018-06-15T17:55:56.861Z,5.27
2018-06-15T17:58:26.031Z,4.13
2018-06-15T18:00:55.241Z,3.90
2018-06-15T18:03:24.399Z,4.63
2018-06-15T18:05:53.596Z,4.70
2018-06-15T18:08:22.794Z,4.77
2018-06-15T18:10:52.849Z,3.40
2018-06-15T18:13:22.080Z,5.60
2018-06-15T18:15:51.258Z,5.40
2018-06-15T18:18:20.437Z,4.97
2018-06-15T18:21:08.699Z,5.80
2018-06-15T18:23:37.900Z,5.97
2018-06-15T18:26:07.078Z,5.17
2018-06-15T18:33:55.769Z,4.70
2018-06-15T18:36:25.300Z,4.50
2018-06-15T18:47:59.003Z,4.20
2018-06-15T18:50:57.311Z,5.13
2018-06-15T18:56:20.771Z,4.87
2018-06-15T18:58:58.016Z,4.53
2018-06-15T19:04:55.787Z,4.80
2018-06-15T19:13:25.876Z,5.10
2018-06-15T19:15:55.028Z,6.33
2018-06-15T19:18:24.206Z,5.37
2018-06-15T19:20:59.178Z,4.80
2018-06-15T19:23:57.054Z,4.83
2018-06-15T19:26:26.258Z,5.13
2018-06-15T19:32:00.059Z,5.10
2018-06-15T19:34:56.425Z,4.40
2018-06-15T19:40:25.606Z,4.90
2018-06-15T19:42:58.606Z,5.53
2018-06-15T19:45:57.255Z,4.83
2018-06-15T19:48:26.197Z,4.97
2018-06-15T19:50:59.208Z,4.47
2018-06-15T19:53:55.913Z,5.30
2018-06-15T19:59:24.890Z,5.43
2018-06-15T20:01:54.105Z,4.47
2018-06-15T20:04:23.350Z,4.57
2018-06-15T20:06:52.605Z,4.77
2018-06-15T20:09:21.824Z,5.20
2018-06-15T20:11:57.862Z,5.20
2018-06-15T20:14:27.009Z,4.70
2018-06-15T20:16:56.168Z,5.10
2018-06-15T20:19:25.444Z,4.53
2018-06-15T20:21:54.593Z,5.40
2018-06-15T20:27:24.485Z,5.10
2018-06-15T20:29:53.730Z,5.13
2018-06-15T20:32:22.903Z,4.87
2018-06-15T20:34:52.111Z,5.10
2018-06-15T20:37:21.327Z,5.10
2018-06-15T20:39:57.613Z,5.43
2018-06-15T20:42:26.808Z,5.60
2018-06-15T20:44:56.057Z,4.70
2018-06-15T20:47:25.251Z,5.07
2018-06-15T20:49:54.469Z,6.07
2018-06-15T20:55:24.162Z,5.93
2018-06-15T20:57:53.353Z,5.47
2018-06-15T21:00:22.859Z,5.60
2018-06-15T21:02:52.022Z,5.63
2018-06-15T21:05:21.219Z,5.00
2018-06-15T21:07:50.482Z,5.97
2018-06-15T21:10:19.662Z,5.10
2018-06-15T21:12:48.857Z,6.20
2018-06-15T21:15:18.205Z,5.47
2018-06-15T21:17:47.466Z,5.90
2018-06-15T21:20:16.721Z,5.10
2018-06-15T21:25:45.987Z,5.37
2018-06-15T21:28:15.229Z,5.43
2018-06-15T21:30:44.413Z,4.87
2018-06-15T21:33:13.613Z,5.50
2018-06-15T21:38:43.457Z,5.60
2018-06-15T21:41:12.432Z,5.77
2018-06-15T21:43:41.612Z,5.60
2018-06-15T21:46:10.800Z,6.00
2018-06-15T21:51:39.918Z,6.37
2018-06-15T21:54:09.064Z,5.60
2018-06-15T21:56:38.236Z,6.07
2018-06-15T21:59:07.422Z,6.10
2018-06-15T22:01:37.256Z,6.47
2018-06-15T22:04:06.437Z,6.07
2018-06-15T22:06:35.627Z,6.10
2018-06-15T22:09:07.305Z,6.33
2018-06-15T22:11:36.518Z,6.80
2018-06-15T22:14:05.714Z,6.30
2018-06-15T22:19:14.981Z,6.60
2018-06-15T22:21:44.145Z,5.70
2018-06-15T22:24:13.352Z,6.03
2018-06-15T22:26:42.580Z,6.13
2018-06-15T22:29:11.799Z,5.93
2018-06-15T22:31:57.864Z,6.30
2018-06-15T22:34:27.116Z,6.87
2018-06-15T22:39:56.633Z,6.30
2018-06-15T22:42:25.812Z,6.80
2018-06-15T22:44:54.981Z,6.57
2018-06-15T22:47:24.186Z,6.87
2018-06-15T22:49:53.351Z,6.67
2018-06-15T22:52:22.516Z,7.00
2018-06-15T22:54:51.800Z,6.33
2018-06-15T22:57:20.974Z,7.20
2018-06-15T22:59:50.196Z,7.57
2018-06-15T23:02:19.368Z,7.30
2018-06-15T23:04:48.621Z,7.10
2018-06-15T23:07:17.805Z,7.30
2018-06-15T23:09:46.966Z,7.13
2018-06-15T23:12:16.150Z,7.93
2018-06-15T23:17:57.798Z,10.87
2018-06-15T23:20:26.989Z,8.90
2018-06-15T23:22:56.174Z,8.23
2018-06-15T23:25:25.377Z,7.70
2018-06-15T23:27:54.525Z,8.13
2018-06-15T23:30:23.722Z,7.90
2018-06-15T23:32:53.014Z,8.17
2018-06-15T23:35:22.289Z,7.70
2018-06-15T23:37:51.478Z,8.10
2018-06-15T23:40:20.662Z,12.97
2018-06-15T23:42:58.110Z,14.87
2018-06-15T23:45:27.263Z,16.03
2018-06-15T23:47:56.448Z,12.40
2018-06-15T23:50:25.642Z,8.33
2018-06-15T23:52:54.801Z,8.03
2018-06-15T23:58:24.629Z,8.90
